Time;durP1;ratioP1;P1;durP2;ratioP2;P2;SDS_P1;SDS_P2;PMS_P1;PMS_P2;Temp;Humidity;BMP_temperature;BMP_pressure;BME280_temperature;BME280_humidity;BME280_pressure;Samples;Min_cycle;Max_cycle;Signal;HPM_P1;HPM_P2
2021/06/06 00:01:27;;;;;;;8.80;5.00;;;13.30;99.90;;;;;;5093071;28;20020;-46
2021/06/06 00:03:58;;;;;;;5.55;3.80;;;13.40;99.90;;;;;;5092955;28;20020;-46
2021/06/06 00:06:29;;;;;;;;;;;13.50;99.90;;;;;;5093707;28;20103;-47
2021/06/06 00:08:58;;;;;;;5.38;3.90;;;13.60;99.90;;;;;;5093044;28;19911;-47
2021/06/06 00:11:34;;;;;;;4.88;4.30;;;13.70;99.90;;;;;;5092854;28;20077;-48
2021/06/06 00:14:04;;;;;;;5.15;4.00;;;13.80;99.90;;;;;;5092995;28;20023;-45
2021/06/06 00:16:36;;;;;;;5.80;4.38;;;13.80;99.70;;;;;;5092820;28;20017;-45
2021/06/06 00:19:05;;;;;;;5.70;4.43;;;13.90;99.10;;;;;;5092815;28;20066;-46
2021/06/06 00:21:34;;;;;;;7.22;4.82;;;13.90;99.50;;;;;;5092828;28;20020;-46
2021/06/06 00:24:01;;;;;;;4.95;4.43;;;13.90;99.30;;;;;;5092753;28;20012;-44
2021/06/06 00:26:28;;;;;;;5.25;4.82;;;14.00;99.60;;;;;;5092808;28;20016;-45
2021/06/06 00:28:56;;;;;;;4.80;4.40;;;14.30;99.80;;;;;;5092677;28;20024;-48
2021/06/06 00:31:23;;;;;;;5.50;4.50;;;14.10;99.10;;;;;;5091701;28;20028;-50
2021/06/06 00:33:52;;;;;;;5.07;4.25;;;14.30;99.30;;;;;;5092761;28;20473;-45
2021/06/06 00:36:21;;;;;;;5.50;5.00;;;14.30;99.20;;;;;;5092552;28;20043;-47
2021/06/06 00:38:49;;;;;;;4.47;4.07;;;14.50;99.50;;;;;;5092783;28;20020;-48
2021/06/06 00:41:18;;;;;;;5.38;4.00;;;14.60;98.90;;;;;;5092764;28;20495;-51
2021/06/06 00:43:47;;;;;;;4.63;4.07;;;14.70;99.00;;;;;;5092405;28;20047;-46
2021/06/06 00:46:17;;;;;;;5.00;4.32;;;14.90;98.60;;;;;;5092625;28;20020;-47
2021/06/06 00:48:45;;;;;;;4.43;4.13;;;15.00;98.50;;;;;;5092679;28;20024;-45
2021/06/06 00:51:21;;;;;;;5.03;4.60;;;15.10;98.30;;;;;;5092712;28;20025;-46
2021/06/06 00:53:56;;;;;;;4.90;4.50;;;15.10;97.70;;;;;;5092829;28;20022;-46
2021/06/06 00:56:28;;;;;;;4.95;4.45;;;15.30;97.70;;;;;;5092553;28;20028;-46
2021/06/06 00:58:58;;;;;;;4.60;4.20;;;15.30;97.60;;;;;;5092443;28;20415;-48
2021/06/06 01:01:26;;;;;;;4.40;4.10;;;15.30;98.10;;;;;;5093636;28;20050;-47
2021/06/06 01:03:56;;;;;;;6.72;5.00;;;15.30;97.80;;;;;;5096141;28;20028;-47
2021/06/06 01:06:23;;;;;;;4.53;4.13;;;15.50;98.60;;;;;;5096144;28;20032;-47
2021/06/06 01:08:52;;;;;;;5.20;4.70;;;15.50;98.00;;;;;;5095915;28;20035;-51
2021/06/06 01:11:43;;;;;;;4.47;4.10;;;15.50;97.80;;;;;;5094621;28;20480;-46
2021/06/06 01:14:17;;;;;;;5.68;4.18;;;15.60;97.40;;;;;;5095956;28;20496;-46
2021/06/06 01:16:53;;;;;;;3.97;3.40;;;15.60;97.50;;;;;;5095829;28;20020;-52
2021/06/06 01:19:49;;;;;;;4.18;3.88;;;15.60;96.80;;;;;;5095852;28;20039;-51
2021/06/06 01:22:42;;;;;;;3.78;3.50;;;15.70;96.50;;;;;;5095720;28;20435;-46
2021/06/06 01:25:20;;;;;;;4.22;3.92;;;15.80;96.40;;;;;;5064800;28;20035;-47
2021/06/06 01:28:15;;;;;;;4.10;3.67;;;15.90;96.40;;;;;;5095927;28;20081;-46
2021/06/06 01:30:47;;;;;;;4.13;3.75;;;16.00;96.20;;;;;;5061216;28;20032;-46
2021/06/06 01:33:29;;;;;;;4.53;4.10;;;16.20;95.60;;;;;;5095527;28;20107;-50
2021/06/06 01:36:05;;;;;;;4.32;3.90;;;16.30;95.70;;;;;;5095500;28;20024;-47
2021/06/06 01:39:00;;;;;;;4.68;4.15;;;16.40;95.70;;;;;;5095545;28;20384;-52
2021/06/06 01:41:37;;;;;;;4.35;4.00;;;16.50;94.80;;;;;;5094113;28;20028;-51
2021/06/06 01:44:08;;;;;;;4.40;4.00;;;16.60;95.80;;;;;;5095250;28;20400;-52
2021/06/06 01:46:51;;;;;;;4.25;3.95;;;16.70;94.70;;;;;;5095568;28;20066;-51
2021/06/06 01:49:20;;;;;;;4.35;3.95;;;16.60;94.30;;;;;;5095312;28;20426;-52
2021/06/06 01:51:54;;;;;;;4.80;4.22;;;16.70;94.40;;;;;;5095299;28;20493;-50
2021/06/06 01:54:25;;;;;;;4.40;4.00;;;16.60;94.50;;;;;;5095421;28;20145;-50
2021/06/06 01:56:54;;;;;;;4.53;4.13;;;16.80;94.30;;;;;;5095322;28;20048;-50
2021/06/06 01:59:38;;;;;;;4.72;4.40;;;16.90;94.10;;;;;;5095068;28;20020;-47
2021/06/06 02:02:06;;;;;;;4.88;4.40;;;17.00;94.50;;;;;;5094947;28;20032;-50
2021/06/06 02:04:36;;;;;;;4.28;3.92;;;17.10;94.00;;;;;;5094898;28;20020;-50
2021/06/06 02:07:26;;;;;;;4.10;3.80;;;17.20;93.90;;;;;;5094848;28;20024;-51
2021/06/06 02:10:17;;;;;;;4.15;3.88;;;17.40;94.00;;;;;;5094882;28;20067;-53
2021/06/06 02:13:07;;;;;;;4.40;4.00;;;17.40;92.70;;;;;;5080092;28;20056;-50
2021/06/06 02:15:37;;;;;;;4.60;4.30;;;17.40;93.20;;;;;;5094390;28;20039;-53
2021/06/06 02:18:07;;;;;;;4.10;3.70;;;17.50;93.60;;;;;;5094770;28;20043;-52
2021/06/06 02:20:44;;;;;;;4.30;4.00;;;17.60;92.90;;;;;;5094652;28;20031;-54
2021/06/06 02:23:14;;;;;;;4.25;3.95;;;17.50;92.70;;;;;;5094850;28;20020;-54
2021/06/06 02:25:42;;;;;;;4.15;3.85;;;17.60;92.90;;;;;;5095133;28;20372;-53
2021/06/06 02:28:31;;;;;;;4.50;3.55;;;17.60;92.90;;;;;;5094762;28;20024;-50
2021/06/06 02:31:33;;;;;;;3.75;3.42;;;17.80;92.70;;;;;;5094622;28;20114;-54
2021/06/06 02:34:06;;;;;;;3.30;3.10;;;17.80;92.10;;;;;;5094573;28;20069;-49
2021/06/06 02:36:36;;;;;;;3.90;3.60;;;17.60;92.30;;;;;;5094389;28;20052;-56
2021/06/06 02:39:16;;;;;;;4.70;3.40;;;17.80;93.20;;;;;;5094400;28;20404;-50
2021/06/06 02:41:54;;;;;;;4.22;3.80;;;18.00;92.50;;;;;;5094554;28;20384;-53
2021/06/06 02:44:31;;;;;;;3.80;3.60;;;18.10;92.50;;;;;;5094165;28;20050;-50
2021/06/06 02:47:00;;;;;;;3.92;3.70;;;18.10;92.10;;;;;;5094188;28;20024;-52
2021/06/06 02:49:31;;;;;;;3.75;3.50;;;18.20;92.10;;;;;;5094237;28;20078;-51
2021/06/06 02:52:04;;;;;;;3.95;3.65;;;18.20;91.70;;;;;;5094285;28;20056;-52
2021/06/06 02:54:41;;;;;;;4.15;3.85;;;18.30;92.40;;;;;;5094133;28;20383;-54
2021/06/06 02:57:12;;;;;;;4.10;3.90;;;18.20;92.10;;;;;;5093968;28;20035;-53
2021/06/06 03:00:05;;;;;;;4.30;4.00;;;18.10;92.20;;;;;;5093963;28;20420;-54
2021/06/06 03:02:43;;;;;;;3.88;3.58;;;18.20;92.10;;;;;;5093912;28;20028;-50
2021/06/06 03:05:13;;;;;;;4.05;3.72;;;17.90;91.90;;;;;;5093926;28;20055;-55
2021/06/06 03:07:46;;;;;;;4.32;4.00;;;18.00;91.70;;;;;;5093888;28;20020;-53
2021/06/06 03:10:17;;;;;;;3.80;3.55;;;18.10;91.80;;;;;;5093785;28;20028;-52
2021/06/06 03:12:47;;;;;;;4.07;3.78;;;18.20;91.80;;;;;;5094013;28;20023;-52
2021/06/06 03:15:15;;;;;;;4.23;4.03;;;18.20;91.70;;;;;;5094156;28;20024;-54
2021/06/06 03:17:46;;;;;;;3.53;3.33;;;18.30;91.80;;;;;;5093678;28;20288;-54
2021/06/06 03:20:17;;;;;;;;;;;18.50;91.90;;;;;;5093973;28;20484;-52
2021/06/06 03:22:46;;;;;;;4.00;3.70;;;18.60;91.40;;;;;;5093486;28;19930;-56
2021/06/06 03:25:32;;;;;;;3.97;3.78;;;18.50;91.80;;;;;;5092860;28;20028;-54
2021/06/06 03:27:59;;;;;;;3.90;3.58;;;18.50;91.90;;;;;;5093502;28;20024;-54
2021/06/06 03:30:30;;;;;;;4.30;3.92;;;18.40;91.70;;;;;;5093376;28;20411;-53
2021/06/06 03:32:59;;;;;;;3.67;3.38;;;18.60;92.00;;;;;;5093479;28;20084;-51
2021/06/06 03:35:26;;;;;;;3.70;3.50;;;18.50;91.10;;;;;;5092113;28;20032;-54
2021/06/06 03:37:54;;;;;;;3.88;3.47;;;18.50;91.60;;;;;;5093287;28;20032;-55
2021/06/06 03:40:24;;;;;;;3.60;3.50;;;18.50;91.40;;;;;;5093394;28;20024;-51
2021/06/06 03:42:52;;;;;;;4.18;3.88;;;18.50;91.80;;;;;;5091855;28;20044;-53
2021/06/06 03:45:20;;;;;;;3.58;3.28;;;18.50;92.00;;;;;;5093436;28;20031;-50
2021/06/06 03:47:49;;;;;;;4.60;3.58;;;18.60;91.60;;;;;;5091956;28;20031;-54
2021/06/06 03:50:18;;;;;;;3.83;3.63;;;18.50;91.60;;;;;;5093067;28;20024;-51
2021/06/06 03:52:45;;;;;;;4.50;4.13;;;18.50;92.50;;;;;;5092976;28;20024;-51
2021/06/06 03:55:16;;;;;;;3.53;3.33;;;18.50;92.30;;;;;;5091808;28;20024;-52
2021/06/06 03:57:45;;;;;;;3.92;3.63;;;18.50;91.70;;;;;;5093282;28;20063;-53
2021/06/06 04:00:21;;;;;;;3.72;3.45;;;18.50;92.60;;;;;;5093014;28;20020;-51
2021/06/06 04:02:49;;;;;;;4.13;3.80;;;18.60;92.10;;;;;;5093044;28;20028;-54
2021/06/06 04:05:16;;;;;;;4.18;3.90;;;18.60;92.40;;;;;;5093032;28;20070;-52
2021/06/06 04:07:44;;;;;;;3.67;3.40;;;18.60;92.30;;;;;;5092937;28;20392;-49
2021/06/06 04:10:12;;;;;;;3.15;2.92;;;18.60;91.70;;;;;;5093007;28;20044;-50
2021/06/06 04:12:39;;;;;;;3.40;3.20;;;18.50;92.20;;;;;;5092950;28;20481;-51
2021/06/06 04:15:07;;;;;;;3.60;3.30;;;18.50;92.20;;;;;;5092898;28;20020;-50
2021/06/06 04:17:35;;;;;;;3.58;3.38;;;18.50;92.60;;;;;;5092928;28;20077;-53
2021/06/06 04:20:04;;;;;;;3.50;3.30;;;18.50;92.50;;;;;;5092879;28;20059;-52
2021/06/06 04:22:31;;;;;;;4.13;3.83;;;18.50;92.80;;;;;;5092761;28;20496;-53
2021/06/06 04:24:58;;;;;;;4.35;4.05;;;18.50;92.60;;;;;;5092898;28;20043;-52
2021/06/06 04:27:26;;;;;;;4.32;3.78;;;18.40;92.50;;;;;;5091543;28;20023;-52
2021/06/06 04:29:56;;;;;;;3.80;3.60;;;18.40;92.60;;;;;;5091482;28;20031;-53
2021/06/06 04:32:23;;;;;;;3.90;3.70;;;18.50;92.70;;;;;;5091571;28;20032;-52
2021/06/06 04:34:51;;;;;;;3.88;3.67;;;18.40;93.00;;;;;;5093112;28;20024;-49
2021/06/06 04:37:19;;;;;;;3.50;3.40;;;18.40;92.40;;;;;;5096780;28;20059;-52
2021/06/06 04:39:47;;;;;;;3.90;3.60;;;18.30;92.00;;;;;;5096674;28;20020;-53
2021/06/06 04:42:19;;;;;;;3.20;2.90;;;18.30;92.60;;;;;;5096647;28;20417;-53
2021/06/06 04:44:50;;;;;;;3.45;3.15;;;18.30;92.90;;;;;;5095275;28;20040;-54
2021/06/06 04:47:17;;;;;;;;;;;18.20;92.40;;;;;;5096957;28;20107;-55
2021/06/06 04:49:45;;;;;;;3.20;2.90;;;18.10;92.70;;;;;;5096565;28;20368;-55
2021/06/06 04:52:15;;;;;;;2.80;2.60;;;18.10;93.20;;;;;;5096393;28;20095;-53
2021/06/06 04:54:44;;;;;;;3.80;3.50;;;18.10;93.00;;;;;;5096261;28;20031;-54
2021/06/06 04:57:11;;;;;;;3.85;3.42;;;18.20;93.10;;;;;;5096347;28;20035;-54
2021/06/06 04:59:39;;;;;;;3.58;3.30;;;18.10;93.30;;;;;;5096195;28;20077;-52
2021/06/06 05:02:12;;;;;;;3.03;2.88;;;18.10;92.90;;;;;;5096097;28;20113;-46
2021/06/06 05:04:43;;;;;;;3.50;3.30;;;18.00;93.20;;;;;;5096215;28;20024;-47
2021/06/06 05:07:11;;;;;;;3.70;3.40;;;18.00;93.10;;;;;;5096181;28;20031;-50
2021/06/06 05:09:38;;;;;;;3.40;3.20;;;18.00;93.40;;;;;;5096304;28;20095;-49
2021/06/06 05:12:06;;;;;;;4.03;3.35;;;18.00;93.30;;;;;;5096097;28;20023;-50
2021/06/06 05:14:33;;;;;;;3.35;3.15;;;18.00;93.20;;;;;;5095859;28;20039;-50
2021/06/06 05:17:01;;;;;;;3.20;3.00;;;18.10;93.20;;;;;;5095909;28;20020;-49
2021/06/06 05:19:28;;;;;;;4.55;3.92;;;18.00;93.30;;;;;;5095686;28;20028;-51
2021/06/06 05:21:56;;;;;;;3.70;3.40;;;18.10;93.50;;;;;;5095692;28;20074;-50
2021/06/06 05:24:27;;;;;;;3.97;3.72;;;18.00;94.00;;;;;;5096020;28;20030;-50
2021/06/06 05:26:54;;;;;;;4.00;3.70;;;17.90;94.20;;;;;;5095763;28;20030;-50
2021/06/06 05:29:22;;;;;;;3.75;3.50;;;17.90;94.20;;;;;;5095668;28;20484;-50
2021/06/06 05:31:50;;;;;;;3.88;3.50;;;17.80;94.40;;;;;;5095729;28;20046;-47
2021/06/06 05:34:18;;;;;;;3.95;3.75;;;17.70;94.20;;;;;;5095591;28;20098;-52
2021/06/06 05:36:45;;;;;;;4.68;4.28;;;17.60;94.30;;;;;;5095504;28;20487;-50
2021/06/06 05:39:13;;;;;;;4.00;3.70;;;17.50;94.70;;;;;;5095533;28;20016;-49
2021/06/06 05:41:40;;;;;;;5.88;3.90;;;17.40;94.20;;;;;;5095373;28;20053;-50
2021/06/06 05:44:08;;;;;;;4.30;4.00;;;17.40;95.60;;;;;;5095080;28;20043;-51
2021/06/06 05:46:36;;;;;;;4.10;3.80;;;17.40;95.40;;;;;;5094729;28;20016;-48
2021/06/06 05:49:04;;;;;;;4.40;4.00;;;17.30;95.60;;;;;;5095363;28;20020;-52
2021/06/06 05:51:32;;;;;;;4.30;4.10;;;17.20;96.10;;;;;;5095241;28;20370;-46
2021/06/06 05:54:00;;;;;;;5.05;4.55;;;17.20;96.50;;;;;;5094128;28;20024;-46
2021/06/06 05:56:27;;;;;;;5.60;4.05;;;17.10;97.30;;;;;;5095115;28;20104;-50
2021/06/06 05:58:54;;;;;;;4.25;3.85;;;17.00;97.80;;;;;;5095231;28;20544;-50
2021/06/06 06:01:22;;;;;;;4.28;3.70;;;16.90;98.30;;;;;;5095165;28;20028;-50
2021/06/06 06:03:50;;;;;;;4.70;4.00;;;16.70;98.60;;;;;;5094946;28;20028;-52
2021/06/06 06:06:17;;;;;;;4.43;4.00;;;16.70;98.70;;;;;;5095012;28;20457;-48
2021/06/06 06:08:46;;;;;;;6.95;4.80;;;16.50;98.90;;;;;;5094927;28;20447;-49
2021/06/06 06:11:17;;;;;;;4.53;4.22;;;16.40;99.70;;;;;;5094615;28;20491;-52
2021/06/06 06:13:46;;;;;;;5.30;4.90;;;16.30;99.70;;;;;;5094569;28;20397;-52
2021/06/06 06:16:16;;;;;;;5.60;5.20;;;16.30;99.60;;;;;;5094724;28;20380;-48
2021/06/06 06:18:43;;;;;;;6.53;4.97;;;16.20;99.90;;;;;;5094897;28;20115;-48
2021/06/06 06:21:14;;;;;;;4.70;4.40;;;16.10;99.70;;;;;;5094580;28;20480;-53
2021/06/06 06:23:42;;;;;;;4.65;4.40;;;16.00;99.90;;;;;;5094532;28;20020;-51
2021/06/06 06:26:10;;;;;;;5.05;4.55;;;15.90;99.90;;;;;;5094593;28;20028;-52
2021/06/06 06:28:37;;;;;;;4.30;4.00;;;15.80;99.90;;;;;;5094607;28;20020;-50
2021/06/06 06:31:05;;;;;;;4.50;4.20;;;15.60;99.90;;;;;;5094846;28;20020;-53
2021/06/06 06:33:33;;;;;;;4.63;4.30;;;15.50;99.90;;;;;;5094472;28;20028;-51
2021/06/06 06:36:00;;;;;;;4.88;4.32;;;15.30;99.90;;;;;;5094364;28;20035;-48
2021/06/06 06:38:30;;;;;;;7.43;5.65;;;15.20;99.90;;;;;;5094386;28;20158;-53
2021/06/06 06:40:58;;;;;;;12.00;6.13;;;15.00;99.90;;;;;;5094224;28;20055;-50
2021/06/06 06:43:25;;;;;;;5.97;4.70;;;14.90;99.90;;;;;;5093776;28;20044;-50
2021/06/06 06:45:54;;;;;;;20.60;8.25;;;14.80;99.90;;;;;;5094005;28;20012;-48
2021/06/06 06:48:24;;;;;;;12.07;6.10;;;14.70;99.90;;;;;;5094105;28;20038;-49
2021/06/06 06:50:52;;;;;;;6.03;5.28;;;14.60;99.90;;;;;;5094028;28;20020;-49
2021/06/06 06:53:21;;;;;;;7.63;5.70;;;14.50;99.90;;;;;;5094064;28;20020;-49
2021/06/06 06:55:49;;;;;;;6.25;5.35;;;14.40;99.90;;;;;;5093906;28;20024;-50
2021/06/06 06:58:17;;;;;;;6.70;6.10;;;14.30;99.90;;;;;;5093371;28;20502;-52
2021/06/06 07:00:48;;;;;;;5.85;5.35;;;14.20;99.90;;;;;;5093583;28;20016;-52
2021/06/06 07:03:19;;;;;;;5.90;5.50;;;14.10;99.90;;;;;;5092673;28;20039;-53
2021/06/06 07:05:47;;;;;;;7.57;5.88;;;14.00;99.90;;;;;;5093812;28;20032;-52
2021/06/06 07:08:20;;;;;;;7.90;6.03;;;14.00;99.90;;;;;;5092462;28;20020;-52
2021/06/06 07:10:47;;;;;;;7.28;6.43;;;13.90;99.90;;;;;;5093783;28;20146;-49
2021/06/06 07:13:15;;;;;;;6.30;5.80;;;13.90;99.90;;;;;;5093624;28;20027;-48
2021/06/06 07:15:43;;;;;;;8.05;6.90;;;13.80;99.90;;;;;;5092190;28;20038;-49
2021/06/06 07:18:14;;;;;;;8.88;7.95;;;13.70;99.90;;;;;;5093679;28;20039;-51
2021/06/06 07:20:42;;;;;;;9.05;7.72;;;13.70;99.90;;;;;;5093427;28;20027;-48
2021/06/06 07:23:12;;;;;;;8.88;8.05;;;13.60;99.90;;;;;;5093362;28;20020;-51
2021/06/06 07:25:42;;;;;;;8.98;7.35;;;13.60;99.90;;;;;;5093437;28;20028;-54
2021/06/06 07:28:12;;;;;;;9.32;7.63;;;13.50;99.90;;;;;;5093448;28;20020;-52
2021/06/06 07:30:46;;;;;;;7.85;6.90;;;13.50;99.90;;;;;;5093716;28;20024;-53
2021/06/06 07:33:16;;;;;;;11.50;8.20;;;13.40;99.90;;;;;;5093665;28;20024;-51
2021/06/06 07:35:44;;;;;;;9.77;8.40;;;13.40;99.90;;;;;;5093553;28;20444;-52
2021/06/06 07:38:12;;;;;;;9.45;8.52;;;13.30;99.90;;;;;;5091983;28;20123;-52
2021/06/06 07:40:43;;;;;;;10.40;9.27;;;13.30;99.90;;;;;;5093140;28;20099;-49
2021/06/06 07:43:12;;;;;;;10.80;9.95;;;13.20;99.90;;;;;;5093158;28;20480;-46
2021/06/06 07:45:40;;;;;;;9.80;9.15;;;13.20;99.90;;;;;;5093145;28;20089;-50
2021/06/06 07:48:08;;;;;;;10.02;9.35;;;13.10;99.90;;;;;;5093111;28;20024;-51
2021/06/06 07:50:41;;;;;;;11.20;10.48;;;13.00;99.90;;;;;;5091959;28;20027;-50
2021/06/06 07:53:09;;;;;;;11.98;10.85;;;12.90;99.90;;;;;;5093059;28;20061;-53
2021/06/06 07:55:37;;;;;;;16.88;15.27;;;12.90;99.90;;;;;;5093018;28;20028;-53
2021/06/06 07:58:05;;;;;;;18.33;16.55;;;12.80;99.90;;;;;;5092930;28;20066;-51
2021/06/06 08:00:38;;;;;;;15.05;13.85;;;12.80;99.90;;;;;;5092978;28;20024;-53
2021/06/06 08:03:06;;;;;;;14.82;13.63;;;12.80;99.90;;;;;;5092972;28;20034;-53
2021/06/06 08:05:35;;;;;;;14.95;13.65;;;12.80;99.90;;;;;;5093012;28;20032;-50
2021/06/06 08:08:04;;;;;;;14.50;13.30;;;12.70;99.90;;;;;;5091662;28;20073;-51
2021/06/06 08:10:33;;;;;;;14.63;13.55;;;12.70;99.90;;;;;;5094532;28;20024;-50
2021/06/06 08:13:00;;;;;;;15.45;14.20;;;12.80;99.90;;;;;;5097127;28;20572;-52
2021/06/06 08:15:28;;;;;;;15.07;14.13;;;12.70;99.90;;;;;;5097081;28;20035;-51
2021/06/06 08:17:57;;;;;;;16.60;15.50;;;12.60;99.90;;;;;;5097096;28;20028;-52
2021/06/06 08:20:29;;;;;;;16.27;15.13;;;12.60;99.90;;;;;;5097024;28;20028;-51
2021/06/06 08:22:57;;;;;;;18.08;16.58;;;12.50;99.90;;;;;;5096913;28;20507;-49
2021/06/06 08:25:26;;;;;;;18.15;16.75;;;12.50;99.90;;;;;;5097052;28;20056;-49
2021/06/06 08:27:54;;;;;;;17.90;16.60;;;12.40;99.90;;;;;;5096962;28;20028;-48
2021/06/06 08:30:35;;;;;;;19.02;17.63;;;12.30;99.90;;;;;;5096878;28;20027;-48
2021/06/06 08:33:02;;;;;;;19.73;17.85;;;12.30;99.90;;;;;;5096744;28;20030;-45
2021/06/06 08:35:30;;;;;;;18.65;17.25;;;12.30;99.90;;;;;;5096630;28;20115;-49
2021/06/06 08:37:57;;;;;;;20.50;18.98;;;12.20;99.90;;;;;;5096690;28;20031;-47
2021/06/06 08:40:48;;;;;;;20.20;18.70;;;12.20;99.90;;;;;;5096673;28;20024;-46
2021/06/06 08:43:15;;;;;;;21.48;19.88;;;12.10;99.90;;;;;;5096292;28;20051;-50
2021/06/06 08:45:55;;;;;;;20.58;19.05;;;12.10;99.90;;;;;;5095237;28;20056;-48
2021/06/06 08:48:25;;;;;;;22.27;20.52;;;12.10;99.90;;;;;;5096371;28;20499;-48
2021/06/06 08:51:16;;;;;;;23.60;21.90;;;12.00;99.90;;;;;;5095132;28;20024;-49
2021/06/06 08:54:11;;;;;;;23.77;22.02;;;11.90;99.90;;;;;;5095014;28;20123;-47
2021/06/06 08:56:39;;;;;;;25.00;23.30;;;11.90;99.90;;;;;;5096349;28;20085;-47
2021/06/06 08:59:08;;;;;;;26.75;24.90;;;11.90;99.90;;;;;;5095073;28;20031;-49
2021/06/06 09:01:39;;;;;;;28.67;26.45;;;11.90;99.90;;;;;;5096210;28;20122;-48
2021/06/06 09:04:25;;;;;;;29.83;27.45;;;11.90;99.90;;;;;;5096267;28;20028;-45
2021/06/06 09:07:10;;;;;;;28.17;26.20;;;11.90;99.90;;;;;;5096308;28;20024;-49
2021/06/06 09:09:43;;;;;;;29.95;27.58;;;11.80;99.90;;;;;;5096193;28;20103;-48
2021/06/06 09:12:19;;;;;;;30.05;28.05;;;11.80;99.90;;;;;;5096233;28;20388;-47
2021/06/06 09:14:48;;;;;;;30.25;27.83;;;11.80;99.90;;;;;;5096083;28;20500;-46
2021/06/06 09:17:18;;;;;;;30.52;28.33;;;11.80;99.90;;;;;;5095989;28;20020;-48
2021/06/06 09:19:59;;;;;;;31.23;29.13;;;11.70;99.90;;;;;;5095907;28;20028;-48
2021/06/06 09:22:44;;;;;;;31.17;28.70;;;11.70;99.90;;;;;;5094814;28;20509;-46
2021/06/06 09:25:33;;;;;;;33.20;30.70;;;11.60;99.90;;;;;;5095760;28;20024;-51
2021/06/06 09:28:11;;;;;;;32.78;30.17;;;11.60;99.90;;;;;;5095778;28;20115;-50
2021/06/06 09:30:41;;;;;;;32.40;30.10;;;11.60;99.90;;;;;;5095688;28;20027;-49
2021/06/06 09:33:43;;;;;;;32.22;29.83;;;11.50;99.90;;;;;;5095666;28;20024;-47
2021/06/06 09:36:22;;;;;;;33.70;30.88;;;11.50;99.90;;;;;;5053143;28;20429;-46
2021/06/06 09:38:54;;;;;;;33.13;30.77;;;11.40;99.90;;;;;;5090974;28;20036;-45
2021/06/06 09:41:33;;;;;;;33.97;31.60;;;11.40;99.90;;;;;;5095820;28;20051;-46
2021/06/06 09:44:14;;;;;;;33.75;31.25;;;11.40;99.90;;;;;;5095313;28;20040;-46
2021/06/06 09:46:42;;;;;;;;;;;11.30;99.90;;;;;;5095970;28;20020;-48
2021/06/06 09:49:30;;;;;;;35.72;33.03;;;11.30;99.90;;;;;;5095381;28;19936;-45
2021/06/06 09:52:25;;;;;;;35.70;33.15;;;11.30;99.90;;;;;;5093943;28;20028;-48
2021/06/06 09:54:57;;;;;;;36.90;34.40;;;11.20;99.90;;;;;;5092477;28;20036;-48
2021/06/06 09:57:38;;;;;;;38.35;35.70;;;11.20;99.90;;;;;;5095216;28;20414;-50
2021/06/06 10:00:13;;;;;;;36.63;34.10;;;11.20;99.90;;;;;;5095419;28;20048;-47
2021/06/06 10:02:48;;;;;;;36.42;33.75;;;11.10;99.90;;;;;;5095365;28;20070;-48
2021/06/06 10:05:36;;;;;;;38.10;35.42;;;11.10;99.90;;;;;;5093758;28;20044;-50
2021/06/06 10:08:07;;;;;;;37.90;35.05;;;11.00;99.90;;;;;;5095048;28;20024;-47
2021/06/06 10:10:42;;;;;;;37.05;34.25;;;11.00;99.90;;;;;;5094965;28;20028;-49
2021/06/06 10:13:14;;;;;;;36.67;34.10;;;10.90;99.90;;;;;;5095015;28;20404;-46
2021/06/06 10:15:52;;;;;;;37.67;35.00;;;10.90;99.90;;;;;;5093687;28;20035;-49
2021/06/06 10:18:34;;;;;;;37.60;34.63;;;10.90;99.90;;;;;;5094844;28;20032;-51
2021/06/06 10:21:22;;;;;;;37.17;34.45;;;10.90;99.90;;;;;;5094880;28;20024;-51
2021/06/06 10:23:59;;;;;;;38.45;35.72;;;10.90;99.90;;;;;;5094741;28;20058;-45
2021/06/06 10:26:46;;;;;;;37.15;34.38;;;11.00;99.90;;;;;;5094683;28;20048;-47
2021/06/06 10:29:54;;;;;;;36.50;33.90;;;11.00;99.90;;;;;;5094718;28;20103;-48
2021/06/06 10:32:25;;;;;;;36.88;34.38;;;11.00;99.90;;;;;;5093557;28;20036;-50
2021/06/06 10:35:21;;;;;;;39.00;36.08;;;10.90;99.90;;;;;;5094160;28;20048;-49
2021/06/06 10:37:52;;;;;;;39.28;36.58;;;10.90;99.90;;;;;;5092360;28;20040;-50
2021/06/06 10:40:22;;;;;;;39.17;36.47;;;10.80;99.90;;;;;;5094386;28;20567;-51
2021/06/06 10:43:02;;;;;;;41.50;38.67;;;10.70;99.90;;;;;;5094098;28;20059;-47
2021/06/06 10:45:56;;;;;;;43.47;40.30;;;10.60;99.90;;;;;;5094353;28;20028;-51
2021/06/06 10:48:28;;;;;;;40.67;37.80;;;10.60;99.90;;;;;;5094164;28;20028;-48
2021/06/06 10:51:16;;;;;;;42.17;39.08;;;10.50;99.90;;;;;;5094159;28;20020;-52
2021/06/06 10:53:59;;;;;;;40.85;38.10;;;10.40;99.90;;;;;;5093983;28;20556;-48
2021/06/06 10:56:56;;;;;;;40.35;37.58;;;10.30;99.90;;;;;;5094045;28;20023;-49
2021/06/06 10:59:35;;;;;;;40.65;37.85;;;10.30;99.90;;;;;;5093956;28;20020;-51
2021/06/06 11:02:06;;;;;;;41.25;38.30;;;10.10;99.90;;;;;;5093828;28;20035;-50
2021/06/06 11:04:48;;;;;;;42.00;39.10;;;10.20;99.90;;;;;;5093915;28;20024;-48
2021/06/06 11:07:18;;;;;;;44.65;41.45;;;10.20;99.90;;;;;;5093845;28;20496;-48
2021/06/06 11:10:19;;;;;;;44.10;40.78;;;10.30;99.90;;;;;;5093721;28;20013;-50
2021/06/06 11:12:49;;;;;;;43.80;40.50;;;10.30;99.90;;;;;;5083112;28;20373;-49
2021/06/06 11:15:39;;;;;;;43.83;40.47;;;10.30;99.90;;;;;;5093843;28;20028;-51
2021/06/06 11:18:20;;;;;;;42.92;39.65;;;10.30;99.90;;;;;;5093932;28;20039;-54
2021/06/06 11:20:50;;;;;;;43.45;40.10;;;10.20;99.90;;;;;;5093386;28;20393;-51
2021/06/06 11:23:32;;;;;;;42.75;39.65;;;10.10;99.90;;;;;;5093441;28;20017;-50
2021/06/06 11:26:00;;;;;;;44.40;41.05;;;10.10;99.90;;;;;;5093570;28;20060;-50
2021/06/06 11:28:33;;;;;;;44.25;40.85;;;10.00;99.90;;;;;;5093345;28;20069;-51
2021/06/06 11:31:05;;;;;;;45.90;42.55;;;10.00;99.90;;;;;;5093400;28;20055;-49
2021/06/06 11:33:55;;;;;;;46.13;42.72;;;10.00;99.90;;;;;;5093296;28;20124;-49
2021/06/06 11:36:34;;;;;;;47.80;44.40;;;10.00;99.90;;;;;;5063607;28;20044;-51
2021/06/06 11:39:28;;;;;;;44.35;41.17;;;10.00;99.90;;;;;;5093284;28;20032;-49
2021/06/06 11:41:56;;;;;;;46.55;42.97;;;10.00;99.90;;;;;;5093246;28;20048;-49
2021/06/06 11:44:43;;;;;;;47.70;43.97;;;10.00;99.90;;;;;;5092589;28;20451;-51
2021/06/06 11:47:18;;;;;;;45.53;42.20;;;10.00;99.90;;;;;;5093232;28;20048;-47
2021/06/06 11:49:54;;;;;;;46.80;43.30;;;10.00;99.90;;;;;;5093124;28;20052;-47
2021/06/06 11:52:21;;;;;;;47.33;43.83;;;9.90;99.90;;;;;;5093003;28;20442;-47
2021/06/06 11:55:08;;;;;;;44.58;41.53;;;9.90;99.90;;;;;;5091701;28;20484;-51
2021/06/06 11:57:42;;;;;;;44.83;41.30;;;9.90;99.90;;;;;;5091953;28;20020;-48
2021/06/06 12:00:31;;;;;;;46.50;43.03;;;9.80;99.90;;;;;;5093277;28;20027;-47
2021/06/06 12:03:18;;;;;;;45.08;41.83;;;9.70;99.90;;;;;;5091739;28;20028;-50
2021/06/06 12:06:27;;;;;;;46.08;42.78;;;9.70;99.90;;;;;;5091505;28;20028;-49
2021/06/06 12:09:00;;;;;;;51.92;48.00;;;9.60;99.90;;;;;;5030602;28;20151;-46
2021/06/06 12:11:34;;;;;;;47.55;43.88;;;9.70;99.90;;;;;;5030674;28;20022;-49
2021/06/06 12:14:10;;;;;;;48.65;45.03;;;9.70;99.90;;;;;;5059399;28;20039;-50
2021/06/06 12:16:44;;;;;;;46.65;43.05;;;9.70;99.90;;;;;;5092873;28;20020;-49
2021/06/06 12:19:15;;;;;;;47.15;43.65;;;9.60;99.90;;;;;;5092776;28;20380;-51
2021/06/06 12:21:46;;;;;;;47.92;44.40;;;9.60;99.90;;;;;;5092850;28;20099;-48
2021/06/06 12:24:23;;;;;;;47.90;44.50;;;9.60;99.90;;;;;;5092750;28;20392;-52
2021/06/06 12:27:00;;;;;;;47.78;44.25;;;9.50;99.90;;;;;;5091454;28;20031;-52
2021/06/06 12:29:32;;;;;;;46.92;43.42;;;9.50;99.90;;;;;;5092756;28;20020;-48
2021/06/06 12:32:20;;;;;;;50.72;46.75;;;9.50;99.90;;;;;;5091633;28;20028;-52
2021/06/06 12:34:48;;;;;;;48.13;44.72;;;9.50;99.90;;;;;;5092766;28;20017;-52
2021/06/06 12:37:23;;;;;;;49.50;46.00;;;9.50;99.90;;;;;;5092601;28;20032;-49
2021/06/06 12:39:53;;;;;;;46.78;43.20;;;9.50;99.90;;;;;;5092687;28;20020;-52
2021/06/06 12:42:21;;;;;;;48.13;44.60;;;9.50;99.90;;;;;;5092612;28;20388;-54
2021/06/06 12:44:52;;;;;;;48.70;44.95;;;9.40;99.90;;;;;;5092549;28;20036;-53
2021/06/06 12:47:41;;;;;;;47.33;44.03;;;9.50;99.90;;;;;;5092605;28;20396;-49
2021/06/06 12:50:12;;;;;;;47.50;43.80;;;9.40;99.90;;;;;;5093176;28;20034;-54
2021/06/06 12:52:40;;;;;;;47.95;44.55;;;9.30;99.90;;;;;;5092588;28;20028;-51
2021/06/06 12:55:22;;;;;;;50.13;46.53;;;9.40;99.90;;;;;;5092620;28;20026;-50
2021/06/06 12:57:58;;;;;;;47.20;43.85;;;9.40;99.90;;;;;;5095971;28;20028;-49
2021/06/06 13:00:35;;;;;;;48.80;45.50;;;9.40;99.90;;;;;;5096211;28;20035;-50
2021/06/06 13:03:15;;;;;;;49.08;45.58;;;9.30;99.90;;;;;;5096320;28;20035;-50
2021/06/06 13:05:49;;;;;;;49.88;46.58;;;9.30;99.90;;;;;;5096349;28;20024;-52
2021/06/06 13:08:42;;;;;;;45.00;41.90;;;9.30;99.90;;;;;;5096303;28;20473;-52
2021/06/06 13:11:31;;;;;;;45.63;42.33;;;9.30;99.90;;;;;;5094697;28;20036;-50
2021/06/06 13:14:05;;;;;;;45.30;42.00;;;9.40;99.90;;;;;;5096256;28;20073;-53